createdAt,value
2023-04-25T00:01:22.458Z,96393.67
2023-04-25T00:03:51.334Z,96385.16
2023-04-25T00:06:19.622Z,96388.05
2023-04-25T00:08:48.582Z,96387.50
2023-04-25T00:11:16.624Z,96384.00
2023-04-25T00:13:44.421Z,96378.41
2023-04-25T00:16:14.076Z,96375.91
2023-04-25T00:18:43.660Z,96378.41
2023-04-25T00:21:11.611Z,96374.56
2023-04-25T00:23:41.019Z,96368.39
2023-04-25T00:26:08.949Z,96373.45
2023-04-25T00:28:36.909Z,96371.52
2023-04-25T00:31:05.209Z,96370.58
2023-04-25T00:33:32.940Z,96362.86
2023-04-25T00:36:01.018Z,96364.78
2023-04-25T00:38:29.009Z,96362.42
2023-04-25T00:40:58.105Z,96359.33
2023-04-25T00:43:28.262Z,96366.22
2023-04-25T00:45:58.215Z,96357.92
2023-04-25T00:48:26.206Z,96362.89
2023-04-25T00:50:59.746Z,96360.77
2023-04-25T00:53:29.719Z,96356.32
2023-04-25T00:55:57.775Z,96359.94
2023-04-25T00:58:25.973Z,96358.73
2023-04-25T01:00:53.967Z,96350.38
2023-04-25T01:03:23.085Z,96352.82
2023-04-25T01:05:52.762Z,96347.72
2023-04-25T01:08:26.041Z,96351.06
2023-04-25T01:10:54.460Z,96347.97
2023-04-25T01:13:22.411Z,96348.11
2023-04-25T01:15:51.681Z,96344.89
2023-04-25T01:18:21.117Z,96342.08
2023-04-25T01:20:53.298Z,96347.64
2023-04-25T01:23:22.895Z,96340.27
2023-04-25T01:25:52.924Z,96344.24
2023-04-25T01:28:21.076Z,96338.22
2023-04-25T01:30:49.084Z,96334.89
2023-04-25T01:33:18.162Z,96341.42
2023-04-25T01:35:46.106Z,96338.73
2023-04-25T01:38:15.532Z,96330.41
2023-04-25T01:40:47.421Z,96330.78
2023-04-25T01:43:15.370Z,96338.30
2023-04-25T01:45:43.836Z,96332.91
2023-04-25T01:48:15.183Z,96327.89
2023-04-25T01:50:46.785Z,96326.75
2023-04-25T01:53:15.622Z,96326.75
2023-04-25T01:55:45.604Z,96325.20
2023-04-25T01:58:15.459Z,96321.70
2023-04-25T02:00:46.128Z,96323.41
2023-04-25T02:03:14.390Z,96319.17
2023-04-25T02:05:42.737Z,96322.20
2023-04-25T02:08:12.688Z,96312.78
2023-04-25T02:10:40.603Z,96314.49
2023-04-25T02:13:10.415Z,96314.30
2023-04-25T02:15:40.200Z,96318.88
2023-04-25T02:18:12.808Z,96309.45
2023-04-25T02:20:42.875Z,96312.72
2023-04-25T02:23:10.790Z,96310.59
2023-04-25T02:25:38.784Z,96313.29
2023-04-25T02:28:06.749Z,96303.08
2023-04-25T02:30:35.809Z,96306.34
2023-04-25T02:33:05.654Z,96306.55
2023-04-25T02:35:33.674Z,96307.70
2023-04-25T02:38:01.724Z,96312.88
2023-04-25T02:40:29.562Z,96310.33
2023-04-25T02:42:57.638Z,96308.98
2023-04-25T02:45:27.405Z,96311.04
2023-04-25T02:47:55.669Z,96310.27
2023-04-25T02:50:52.811Z,96310.97
2023-04-25T02:53:20.693Z,96307.84
2023-04-25T02:55:50.492Z,96303.33
2023-04-25T02:58:18.777Z,96301.15
2023-04-25T03:00:48.985Z,96299.16
2023-04-25T03:03:18.871Z,96298.16
2023-04-25T03:05:47.479Z,96298.32
2023-04-25T03:08:16.603Z,96302.30
2023-04-25T03:10:46.252Z,96296.11
2023-04-25T03:13:17.158Z,96285.57
2023-04-25T03:15:45.064Z,96303.00
2023-04-25T03:18:13.173Z,96295.63
2023-04-25T03:20:42.615Z,96295.06
2023-04-25T03:23:11.005Z,96300.44
2023-04-25T03:25:40.404Z,96297.18
2023-04-25T03:28:08.492Z,96293.51
2023-04-25T03:30:38.092Z,96290.25
2023-04-25T03:33:11.111Z,96291.59
2023-04-25T03:35:39.713Z,96296.41
2023-04-25T03:38:08.630Z,96295.06
2023-04-25T03:40:39.309Z,96293.51
2023-04-25T03:43:25.077Z,96300.24
2023-04-25T03:45:55.538Z,96293.08
2023-04-25T03:48:25.217Z,96294.55
2023-04-25T03:50:54.329Z,96299.94
2023-04-25T03:53:40.598Z,96302.63
2023-04-25T03:56:27.134Z,96298.83
2023-04-25T03:58:57.293Z,96303.84
2023-04-25T04:01:26.531Z,96304.41
2023-04-25T04:03:54.948Z,96302.50
2023-04-25T04:06:23.857Z,96300.17
2023-04-25T04:08:53.591Z,96293.78
2023-04-25T04:11:22.010Z,96290.31
2023-04-25T04:13:50.261Z,96292.80
2023-04-25T04:16:19.422Z,96293.00
2023-04-25T04:18:48.282Z,96295.70
2023-04-25T04:21:16.303Z,96291.29
2023-04-25T04:23:44.453Z,96294.99
2023-04-25T04:26:13.498Z,96293.51
2023-04-25T04:28:47.448Z,96285.06
2023-04-25T04:31:23.515Z,96283.92
2023-04-25T04:33:52.560Z,96291.52
2023-04-25T04:36:22.587Z,96279.41
2023-04-25T04:38:50.652Z,96296.41
2023-04-25T04:41:20.523Z,96296.03
2023-04-25T04:43:53.844Z,96296.10
2023-04-25T04:46:32.732Z,96298.09
2023-04-25T04:49:14.922Z,96292.20
2023-04-25T04:51:59.524Z,96287.64
2023-04-25T04:54:36.004Z,96290.41
2023-04-25T04:57:11.579Z,96291.04
2023-04-25T04:59:54.081Z,96294.94
2023-04-25T05:02:40.025Z,96282.25
2023-04-25T05:05:10.421Z,96275.95
2023-04-25T05:07:57.256Z,96284.09
2023-04-25T05:10:39.220Z,96273.72
2023-04-25T05:13:11.876Z,96271.59
2023-04-25T05:15:59.006Z,96270.05
2023-04-25T05:18:28.828Z,96264.86
2023-04-25T05:21:11.266Z,96268.97
2023-04-25T05:23:44.517Z,96266.33
2023-04-25T05:26:33.219Z,96266.19
2023-04-25T05:29:21.326Z,96260.28
2023-04-25T05:32:08.284Z,96258.99
2023-04-25T05:34:37.372Z,96265.98
2023-04-25T05:37:09.170Z,96266.42
2023-04-25T05:39:39.263Z,96263.20
2023-04-25T05:42:15.069Z,96266.91
2023-04-25T05:44:56.957Z,96268.97
2023-04-25T05:47:35.764Z,96269.11
2023-04-25T05:50:19.523Z,96263.52
2023-04-25T05:52:55.259Z,96260.45
2023-04-25T05:55:28.983Z,96263.64
2023-04-25T05:57:57.226Z,96263.06
2023-04-25T06:00:25.603Z,96262.34
2023-04-25T06:02:54.354Z,96262.28
2023-04-25T06:05:24.972Z,96256.00
2023-04-25T06:07:53.110Z,96260.58
2023-04-25T06:10:23.367Z,96253.56
2023-04-25T06:12:51.422Z,96254.44
2023-04-25T06:17:49.867Z,96249.66
2023-04-25T06:20:18.571Z,96251.34
2023-04-25T06:22:46.706Z,96252.23
2023-04-25T06:25:15.094Z,96246.42
2023-04-25T06:27:43.092Z,96247.27
2023-04-25T06:30:13.246Z,96247.84
2023-04-25T06:32:41.286Z,96242.84
2023-04-25T06:35:10.833Z,96245.80
2023-04-25T06:37:41.823Z,96241.22
2023-04-25T06:40:10.551Z,96251.87
2023-04-25T06:42:38.573Z,96250.78
2023-04-25T06:45:09.187Z,96247.92
2023-04-25T06:47:37.480Z,96247.80
2023-04-25T06:50:06.944Z,96250.83
2023-04-25T06:52:35.933Z,96248.78
2023-04-25T06:55:05.651Z,96245.59
2023-04-25T06:57:35.640Z,96243.91
2023-04-25T07:00:09.894Z,96243.78
2023-04-25T07:02:38.570Z,96249.41
2023-04-25T07:05:07.134Z,96243.28
2023-04-25T07:07:35.186Z,96242.42
2023-04-25T07:10:03.857Z,96234.99
2023-04-25T07:12:31.819Z,96233.53
2023-04-25T07:14:59.757Z,96235.02
2023-04-25T07:17:28.020Z,96230.09
2023-04-25T07:19:56.287Z,96239.08
2023-04-25T07:22:24.910Z,96228.51
2023-04-25T07:24:53.828Z,96229.31
2023-04-25T07:27:22.133Z,96230.13
2023-04-25T07:30:09.761Z,96228.23
2023-04-25T07:32:40.781Z,96231.52
2023-04-25T07:35:09.635Z,96219.36
2023-04-25T07:37:37.970Z,96221.08
2023-04-25T07:40:15.869Z,96219.52
2023-04-25T07:42:45.701Z,96216.78
2023-04-25T07:45:17.895Z,96214.23
2023-04-25T07:47:45.804Z,96217.12
2023-04-25T07:50:14.600Z,96213.38
2023-04-25T07:52:42.886Z,96212.77
2023-04-25T07:55:16.053Z,96209.92
2023-04-25T07:57:57.496Z,96209.19
2023-04-25T08:00:25.255Z,96207.11
2023-04-25T08:02:54.590Z,96204.41
2023-04-25T08:05:23.140Z,96199.99
2023-04-25T08:07:52.884Z,96191.36
2023-04-25T08:10:21.406Z,96192.68
2023-04-25T08:12:50.066Z,96192.45
2023-04-25T08:15:17.980Z,96193.00
2023-04-25T08:17:46.091Z,96195.59
2023-04-25T08:20:14.668Z,96195.90
2023-04-25T08:22:43.112Z,96190.10
2023-04-25T08:25:19.117Z,96191.95
2023-04-25T08:27:47.352Z,96196.80
2023-04-25T08:30:16.135Z,96194.96
2023-04-25T08:32:44.309Z,96197.91
2023-04-25T08:35:19.864Z,96186.23
2023-04-25T08:37:47.819Z,96195.88
2023-04-25T08:40:16.850Z,96198.95
2023-04-25T08:43:00.764Z,96197.66
2023-04-25T08:45:31.665Z,96189.52
2023-04-25T08:48:00.368Z,96186.71
2023-04-25T08:50:28.421Z,96186.91
2023-04-25T08:53:11.040Z,96187.31
2023-04-25T08:55:42.923Z,96184.33
2023-04-25T08:58:12.266Z,96184.63
2023-04-25T09:00:40.352Z,96182.30
2023-04-25T09:03:15.911Z,96176.52
2023-04-25T09:05:44.295Z,96176.70
2023-04-25T09:08:13.331Z,96184.75
2023-04-25T09:10:41.455Z,96180.81
2023-04-25T09:13:18.529Z,96178.53
2023-04-25T09:15:57.890Z,96175.73
2023-04-25T09:18:34.935Z,96170.84
2023-04-25T09:21:14.764Z,96172.55
2023-04-25T09:23:48.504Z,96169.56
2023-04-25T09:26:18.666Z,96163.59
2023-04-25T09:28:48.764Z,96165.44
2023-04-25T09:31:27.365Z,96160.63
2023-04-25T09:34:02.647Z,96159.27
2023-04-25T09:36:32.369Z,96169.11
2023-04-25T09:39:10.314Z,96162.13
2023-04-25T09:41:46.201Z,96160.03
2023-04-25T09:44:14.155Z,96151.77
2023-04-25T09:46:43.460Z,96153.33
2023-04-25T09:49:15.778Z,96146.03
2023-04-25T09:51:57.663Z,96144.75
2023-04-25T09:54:27.495Z,96139.28
2023-04-25T09:56:57.777Z,96138.20
2023-04-25T09:59:26.059Z,96129.13
2023-04-25T10:01:56.900Z,96128.27
2023-04-25T10:04:30.302Z,96132.09
2023-04-25T10:07:06.918Z,96119.09
2023-04-25T10:09:37.522Z,96124.26
2023-04-25T10:12:07.771Z,96120.44
2023-04-25T10:14:36.561Z,96115.34
2023-04-25T10:17:04.438Z,96111.02
2023-04-25T10:19:32.941Z,96109.66
2023-04-25T10:22:15.557Z,96105.46
2023-04-25T10:24:45.076Z,96103.16
2023-04-25T10:27:13.483Z,96097.32
2023-04-25T10:29:44.385Z,96094.38
2023-04-25T10:32:15.625Z,96083.51
2023-04-25T10:34:49.132Z,96073.45
2023-04-25T10:37:16.928Z,96077.43
2023-04-25T10:39:45.409Z,96074.04
2023-04-25T10:42:13.171Z,96066.63
2023-04-25T10:44:41.448Z,96060.94
2023-04-25T10:47:10.326Z,96064.86
2023-04-25T10:49:43.968Z,96049.92
2023-04-25T10:52:30.299Z,96046.14
2023-04-25T10:54:59.389Z,96043.07
2023-04-25T10:57:48.256Z,96042.07
2023-04-25T11:00:19.008Z,96036.99
2023-04-25T11:02:49.943Z,96037.92
2023-04-25T11:05:29.751Z,96035.03
2023-04-25T11:08:07.226Z,96035.67
2023-04-25T11:10:35.628Z,96024.51
2023-04-25T11:13:05.952Z,96025.62
2023-04-25T11:15:33.898Z,96026.73
2023-04-25T11:18:02.595Z,96034.25
2023-04-25T11:20:30.607Z,96029.98
2023-04-25T11:23:00.643Z,96017.89
2023-04-25T11:25:30.358Z,96021.13
2023-04-25T11:28:14.913Z,96018.22
2023-04-25T11:30:52.171Z,96011.73
2023-04-25T11:33:25.785Z,96001.55
2023-04-25T11:40:01.144Z,95995.00
2023-04-25T11:42:31.049Z,95998.67
2023-04-25T11:45:00.148Z,95992.69
2023-04-25T11:47:33.925Z,95986.58
2023-04-25T11:50:06.771Z,95984.13
2023-04-25T11:52:46.832Z,95980.08
2023-04-25T11:55:20.459Z,95976.87
2023-04-25T11:57:53.415Z,95973.87
2023-04-25T12:00:23.223Z,95971.41
2023-04-25T12:02:58.586Z,95969.81
2023-04-25T12:05:33.687Z,95963.30
2023-04-25T12:08:18.850Z,95971.14
2023-04-25T12:10:47.797Z,95963.80
2023-04-25T12:13:28.005Z,95957.36
2023-04-25T12:15:57.151Z,95953.62
2023-04-25T12:18:28.785Z,95952.13
2023-04-25T12:21:05.281Z,95952.55
2023-04-25T12:23:42.020Z,95950.95
2023-04-25T12:26:14.934Z,95945.94
2023-04-25T12:28:47.758Z,95940.55
2023-04-25T12:31:16.868Z,95939.56
2023-04-25T12:33:48.325Z,95935.34
2023-04-25T12:36:17.844Z,95933.84
2023-04-25T12:38:45.833Z,95927.64
2023-04-25T12:41:13.571Z,95932.72
2023-04-25T12:43:42.578Z,95930.67
2023-04-25T12:46:10.477Z,95927.38
2023-04-25T12:48:39.615Z,95930.84
2023-04-25T12:51:10.471Z,95929.36
2023-04-25T12:53:42.894Z,95920.34
2023-04-25T12:56:11.289Z,95921.30
2023-04-25T12:58:41.224Z,95924.20
2023-04-25T13:01:09.628Z,95923.02
2023-04-25T13:03:37.685Z,95924.64
2023-04-25T13:06:08.834Z,95927.98
2023-04-25T13:08:38.693Z,95917.55
2023-04-25T13:11:08.208Z,95918.16
2023-04-25T13:13:36.184Z,95913.25
2023-04-25T13:16:06.360Z,95913.02
2023-04-25T13:18:37.575Z,95912.02
2023-04-25T13:21:05.650Z,95910.30
2023-04-25T13:23:38.442Z,95910.86
2023-04-25T13:26:10.515Z,95906.41
2023-04-25T13:28:38.229Z,95901.88
2023-04-25T13:31:09.369Z,95904.25
2023-04-25T13:33:38.373Z,95907.73
2023-04-25T13:36:07.288Z,95902.47
2023-04-25T13:38:35.414Z,95910.50
2023-04-25T13:41:04.518Z,95911.95
2023-04-25T13:43:34.482Z,95910.42
2023-04-25T13:46:02.479Z,95907.12
2023-04-25T13:48:31.125Z,95911.97
2023-04-25T13:50:59.092Z,95905.95
2023-04-25T13:53:27.469Z,95918.63
2023-04-25T13:55:55.233Z,95923.25
2023-04-25T13:58:27.859Z,95926.05
2023-04-25T14:00:55.888Z,95927.24
2023-04-25T14:03:24.009Z,95923.36
2023-04-25T14:05:52.176Z,95921.73
2023-04-25T14:08:20.711Z,95925.19
2023-04-25T14:10:48.492Z,95932.92
2023-04-25T14:13:16.724Z,95931.54
2023-04-25T14:15:45.050Z,95932.16
2023-04-25T14:18:14.353Z,95926.02
2023-04-25T14:20:42.260Z,95928.02
2023-04-25T14:23:10.390Z,95931.28
2023-04-25T14:25:39.489Z,95937.30
2023-04-25T14:28:08.226Z,95945.61
2023-04-25T14:30:41.840Z,95944.00
2023-04-25T14:33:09.772Z,95938.91
2023-04-25T14:35:38.634Z,95941.75
2023-04-25T14:38:09.052Z,95939.98
2023-04-25T14:40:38.338Z,95942.88
2023-04-25T14:43:06.365Z,95946.09
2023-04-25T14:45:35.274Z,95944.98
2023-04-25T14:48:03.540Z,95948.70
2023-04-25T14:50:37.782Z,95951.27
2023-04-25T14:53:24.045Z,95958.73
2023-04-25T14:55:55.125Z,95962.94
2023-04-25T14:58:26.572Z,95964.70
2023-04-25T15:01:04.356Z,95954.84
2023-04-25T15:03:44.741Z,95955.55
2023-04-25T15:06:21.101Z,95955.89
2023-04-25T15:08:55.647Z,95958.34
2023-04-25T15:11:36.022Z,95961.41
2023-04-25T15:14:09.391Z,95960.94
2023-04-25T15:16:52.801Z,95957.23
2023-04-25T15:19:32.881Z,95962.02
2023-04-25T15:22:06.224Z,95969.09
2023-04-25T15:24:45.687Z,95972.64
2023-04-25T15:27:27.604Z,95979.50
2023-04-25T15:30:02.943Z,95979.39
2023-04-25T15:32:31.233Z,95979.11
2023-04-25T15:35:06.168Z,95985.72
2023-04-25T15:37:35.988Z,95987.52
2023-04-25T15:40:09.593Z,95991.70
2023-04-25T15:42:47.217Z,95991.36
2023-04-25T15:45:17.296Z,95992.79
2023-04-25T15:47:45.723Z,95996.52
2023-04-25T15:50:23.066Z,95996.77
2023-04-25T15:52:51.656Z,95992.19
2023-04-25T15:55:24.989Z,95991.66
2023-04-25T15:57:55.300Z,95991.67
2023-04-25T16:00:23.475Z,95992.68
2023-04-25T16:02:51.277Z,95988.48
2023-04-25T16:05:20.448Z,95990.02
2023-04-25T16:07:49.874Z,95994.70
2023-04-25T16:10:34.990Z,95994.14
2023-04-25T16:12:51.363Z,96001.71
2023-04-25T16:15:20.152Z,95991.66
2023-04-25T16:17:55.476Z,95994.78
2023-04-25T16:20:23.489Z,95998.86
2023-04-25T16:22:52.077Z,95991.89
2023-04-25T16:25:23.250Z,95984.94
2023-04-25T16:27:51.435Z,95995.19
2023-04-25T16:30:20.094Z,95996.54
2023-04-25T16:32:48.302Z,95997.52
2023-04-25T16:35:16.473Z,95996.69
2023-04-25T16:37:44.488Z,95998.62
2023-04-25T16:40:12.907Z,95998.61
2023-04-25T16:42:41.004Z,96000.72
2023-04-25T16:45:11.186Z,96000.34
2023-04-25T16:47:38.855Z,96001.29
2023-04-25T16:50:09.183Z,96004.94
2023-04-25T16:52:39.113Z,96002.80
2023-04-25T16:55:14.095Z,96005.88
2023-04-25T16:57:42.550Z,96016.28
2023-04-25T17:00:14.867Z,96018.02
2023-04-25T17:02:45.012Z,96014.71
2023-04-25T17:05:14.985Z,96011.41
2023-04-25T17:07:42.671Z,96015.64
2023-04-25T17:10:10.785Z,96017.97
2023-04-25T17:12:38.604Z,96020.23
2023-04-25T17:15:08.312Z,96020.20
2023-04-25T17:17:36.932Z,96017.43
2023-04-25T17:20:06.588Z,96022.05
2023-04-25T17:22:39.891Z,96032.25
2023-04-25T17:25:09.363Z,96031.48
2023-04-25T17:27:37.256Z,96039.59
2023-04-25T17:30:06.543Z,96045.00
2023-04-25T17:32:36.493Z,96044.39
2023-04-25T17:35:06.182Z,96043.79
2023-04-25T17:37:33.960Z,96048.23
2023-04-25T17:40:05.565Z,96043.58
2023-04-25T17:42:33.821Z,96043.36
2023-04-25T17:45:01.532Z,96043.34
2023-04-25T17:47:30.809Z,96040.83
2023-04-25T17:49:58.753Z,96046.56
2023-04-25T17:52:31.644Z,96054.83
2023-04-25T17:54:59.577Z,96064.67
2023-04-25T17:57:27.274Z,96070.24
2023-04-25T17:59:57.342Z,96082.59
2023-04-25T18:02:31.085Z,96082.56
2023-04-25T18:05:04.283Z,96092.54
2023-04-25T18:07:32.097Z,96098.71
2023-04-25T18:10:00.234Z,96094.25
2023-04-25T18:12:28.283Z,96096.88
2023-04-25T18:14:56.132Z,96098.66
2023-04-25T18:17:27.218Z,96097.68
2023-04-25T18:19:56.664Z,96099.88
2023-04-25T18:22:25.233Z,96103.81
2023-04-25T18:24:54.770Z,96101.34
2023-04-25T18:27:24.515Z,96101.88
2023-04-25T18:30:02.191Z,96098.17
2023-04-25T18:32:31.236Z,96094.62
2023-04-25T18:34:59.051Z,96098.52
2023-04-25T18:37:27.867Z,96102.84
2023-04-25T18:39:56.657Z,96104.77
2023-04-25T18:42:29.508Z,96103.03
2023-04-25T18:44:58.765Z,96101.06
2023-04-25T18:47:28.947Z,96099.30
2023-04-25T18:50:08.452Z,96099.88
2023-04-25T18:52:37.322Z,96103.48
2023-04-25T18:55:08.709Z,96093.38
2023-04-25T18:57:37.843Z,96094.45
2023-04-25T19:00:07.633Z,96099.98
2023-04-25T19:02:37.535Z,96094.43
2023-04-25T19:05:06.812Z,96105.27
2023-04-25T19:07:35.071Z,96101.52
2023-04-25T19:10:04.546Z,96099.77
2023-04-25T19:12:33.132Z,96103.34
2023-04-25T19:15:06.377Z,96104.78
2023-04-25T19:17:38.463Z,96104.53
2023-04-25T19:20:10.548Z,96108.17
2023-04-25T19:22:39.885Z,96109.67
2023-04-25T19:25:11.319Z,96103.23
2023-04-25T19:27:41.493Z,96101.72
2023-04-25T19:30:14.354Z,96103.19
2023-04-25T19:32:42.375Z,96102.12
2023-04-25T19:35:11.782Z,96106.74
2023-04-25T19:37:42.385Z,96110.01
2023-04-25T19:40:12.214Z,96111.35
2023-04-25T19:42:42.255Z,96107.45
2023-04-25T19:45:11.124Z,96105.66
2023-04-25T19:47:41.545Z,96108.14
2023-04-25T19:50:10.758Z,96111.00
2023-04-25T19:52:40.108Z,96117.81
2023-04-25T19:55:11.253Z,96112.17
2023-04-25T19:57:41.049Z,96117.62
2023-04-25T20:00:13.870Z,96115.02
2023-04-25T20:02:48.046Z,96108.53
2023-04-25T20:05:20.179Z,96111.80
2023-04-25T20:07:51.138Z,96105.55
2023-04-25T20:10:20.111Z,96106.77
2023-04-25T20:12:48.134Z,96107.70
2023-04-25T20:15:18.732Z,96112.84
2023-04-25T20:17:48.033Z,96113.48
2023-04-25T20:20:16.911Z,96102.59
2023-04-25T20:22:47.181Z,96106.42
2023-04-25T20:25:18.228Z,96112.94
2023-04-25T20:27:47.241Z,96104.23
2023-04-25T20:30:18.884Z,96100.91
2023-04-25T20:32:46.916Z,96103.16
2023-04-25T20:35:18.314Z,96102.19
2023-04-25T20:37:50.482Z,96102.33
2023-04-25T20:40:20.438Z,96105.92
2023-04-25T20:42:49.920Z,96104.38
2023-04-25T20:45:20.357Z,96099.94
2023-04-25T20:47:53.886Z,96079.04
2023-04-25T20:53:50.060Z,96095.27
2023-04-25T20:56:19.781Z,96081.93
2023-04-25T20:58:56.713Z,96102.87
2023-04-25T21:01:26.224Z,96101.19
2023-04-25T21:03:54.582Z,96099.84
2023-04-25T21:06:23.198Z,96097.16
2023-04-25T21:08:52.933Z,96099.30
2023-04-25T21:11:23.031Z,96106.80
2023-04-25T21:13:52.476Z,96103.44
2023-04-25T21:16:21.156Z,96108.75
2023-04-25T21:18:51.734Z,96111.23
2023-04-25T21:21:20.113Z,96104.64
2023-04-25T21:23:48.293Z,96110.52
2023-04-25T21:26:18.169Z,96118.92
2023-04-25T21:28:48.964Z,96119.29
2023-04-25T21:31:17.597Z,96121.41
2023-04-25T21:33:48.307Z,96114.11
2023-04-25T21:36:17.056Z,96123.96
2023-04-25T21:38:45.523Z,96125.38
2023-04-25T21:41:13.948Z,96126.15
2023-04-25T21:43:41.847Z,96120.20
2023-04-25T21:48:40.330Z,96123.46
2023-04-25T21:51:08.083Z,96124.44
2023-04-25T21:53:36.776Z,96122.76
2023-04-25T21:56:04.964Z,96124.10
2023-04-25T21:58:37.343Z,96124.44
2023-04-25T22:01:05.136Z,96130.52
2023-04-25T22:03:36.652Z,96123.46
2023-04-25T22:06:04.850Z,96124.16
2023-04-25T22:08:33.812Z,96128.56
2023-04-25T22:11:02.864Z,96121.04
2023-04-25T22:13:35.168Z,96127.63
2023-04-25T22:16:06.790Z,96121.68
2023-04-25T22:18:40.502Z,96121.68
2023-04-25T22:21:08.372Z,96117.08
2023-04-25T22:23:38.410Z,96115.66
2023-04-25T22:26:09.537Z,96123.96
2023-04-25T22:28:38.779Z,96125.94
2023-04-25T22:31:07.097Z,96127.15
2023-04-25T22:33:35.409Z,96123.05
2023-04-25T22:36:03.698Z,96127.41
2023-04-25T22:38:31.595Z,96128.34
2023-04-25T22:41:01.181Z,96127.55
2023-04-25T22:43:28.926Z,96124.66
2023-04-25T22:45:58.369Z,96126.44
2023-04-25T22:48:26.238Z,96126.64
2023-04-25T22:51:02.787Z,96125.09
2023-04-25T22:53:32.950Z,96129.62
2023-04-25T22:56:00.687Z,96130.31
2023-04-25T22:58:28.519Z,96126.98
2023-04-25T23:00:56.954Z,96127.89
2023-04-25T23:03:24.926Z,96136.66
2023-04-25T23:05:52.814Z,96122.37
2023-04-25T23:08:20.982Z,96131.00
2023-04-25T23:10:48.761Z,96129.02
2023-04-25T23:13:16.567Z,96132.97
2023-04-25T23:15:44.381Z,96134.02
2023-04-25T23:18:13.877Z,96134.28
2023-04-25T23:20:42.460Z,96134.90
2023-04-25T23:23:10.547Z,96135.39
2023-04-25T23:25:41.034Z,96134.33
2023-04-25T23:28:08.789Z,96137.75
2023-04-25T23:30:36.501Z,96134.13
2023-04-25T23:33:09.960Z,96134.61
2023-04-25T23:35:37.596Z,96140.47
2023-04-25T23:38:05.904Z,96137.01
2023-04-25T23:40:33.767Z,96141.03
2023-04-25T23:43:03.040Z,96139.38
2023-04-25T23:45:30.531Z,96139.08
2023-04-25T23:47:58.348Z,96142.24
2023-04-25T23:50:26.178Z,96142.93
2023-04-25T23:52:53.991Z,96142.48
2023-04-25T23:55:21.574Z,96139.51
2023-04-25T23:57:49.231Z,96149.38
